< < Back
Terminal Aerodrome Forecast


Current Version              Previous Versions:   1  2  3  4  5  6  7  8  9  

Terminal Aerodrome Forecast

591
FTUS44 KMRX 281735
TAFTYS
TAF
KTYS 281735Z 2818/2918 36004KT P6SM SCT045
     FM290000 00000KT P6SM SCT150
     FM291500 24005KT P6SM FEW040=

Latest METAR

873
SAUS80 KWBC 291600
MTRTYS
METAR KTYS 291553Z VRB03KT 10SM FEW031 FEW250 29/21 A3009 RMK AO2 SLP178
T02940206


USA.gov is the U.S. government's official web portal to all federal, state and local government web resources and services.